Time;durP1;ratioP1;P1;durP2;ratioP2;P2;SDS_P1;SDS_P2;PMS_P1;PMS_P2;Temp;Humidity;BMP_temperature;BMP_pressure;BME280_temperature;BME280_humidity;BME280_pressure;Samples;Min_cycle;Max_cycle;Signal;HPM_P1;HPM_P2
2022/04/09 00:00:49;;;;;;;2.05;1.50;;;14.30;79.40;;;;;;5063804;28;20086;-60
2022/04/09 00:03:14;;;;;;;4.47;1.33;;;14.30;79.40;;;;;;5063980;28;20017;-62
2022/04/09 00:05:40;;;;;;;6.50;1.40;;;14.30;79.40;;;;;;5078308;28;20032;-60
2022/04/09 00:08:06;;;;;;;3.90;1.23;;;14.30;79.30;;;;;;5063393;28;20485;-59
2022/04/09 00:10:31;;;;;;;3.10;1.45;;;14.20;79.30;;;;;;5061949;28;20068;-61
2022/04/09 00:12:57;;;;;;;2.75;1.20;;;14.20;79.40;;;;;;5062402;28;20067;-62
2022/04/09 00:15:22;;;;;;;4.15;1.40;;;14.20;79.50;;;;;;5063131;28;20032;-60
2022/04/09 00:17:48;;;;;;;4.55;1.00;;;14.10;79.50;;;;;;5061430;28;20659;-61
2022/04/09 00:20:17;;;;;;;2.75;0.95;;;14.10;79.60;;;;;;5077579;28;20183;-61
2022/04/09 00:22:44;;;;;;;6.05;1.10;;;14.10;79.60;;;;;;5061858;28;20124;-60
2022/04/09 00:25:11;;;;;;;4.53;1.00;;;14.10;79.70;;;;;;5061392;28;20040;-62
2022/04/09 00:27:37;;;;;;;3.25;1.02;;;14.00;79.70;;;;;;5060656;28;20347;-60
2022/04/09 00:30:03;;;;;;;1.63;1.00;;;14.10;79.80;;;;;;5079153;28;20123;-60
2022/04/09 00:32:29;;;;;;;2.00;1.33;;;14.00;79.80;;;;;;5059629;28;20475;-60
2022/04/09 00:34:54;;;;;;;1.98;0.80;;;14.00;79.70;;;;;;5061401;28;20028;-61
2022/04/09 00:37:20;;;;;;;3.45;1.00;;;14.00;79.80;;;;;;5059855;28;20116;-62
2022/04/09 00:39:45;;;;;;;3.33;0.82;;;14.00;79.90;;;;;;5060606;28;20561;-61
2022/04/09 00:42:15;;;;;;;2.35;1.00;;;14.00;79.80;;;;;;5073765;28;20159;-60
2022/04/09 00:44:40;;;;;;;1.77;0.80;;;13.90;80.00;;;;;;5063222;28;20503;-60
2022/04/09 00:47:07;;;;;;;8.02;1.00;;;13.90;80.00;;;;;;5062306;28;20033;-61
2022/04/09 00:49:32;;;;;;;9.75;1.00;;;13.90;80.30;;;;;;5075467;28;20024;-61
2022/04/09 00:51:59;;;;;;;2.70;0.90;;;13.80;80.40;;;;;;5058012;28;20242;-60
2022/04/09 00:54:25;;;;;;;10.45;1.13;;;13.80;80.70;;;;;;5044525;28;20037;-61
2022/04/09 00:56:51;;;;;;;8.70;1.13;;;13.70;80.90;;;;;;5093478;27;20087;-61
2022/04/09 00:59:17;;;;;;;4.43;0.88;;;13.60;81.00;;;;;;5060989;28;20031;-61
2022/04/09 01:01:42;;;;;;;6.65;1.02;;;13.60;81.20;;;;;;5059864;28;20033;-61
2022/04/09 01:04:09;;;;;;;1.85;0.73;;;13.50;81.30;;;;;;5060668;28;20390;-61
2022/04/09 01:06:35;;;;;;;2.78;0.70;;;13.40;81.30;;;;;;5062523;28;20035;-60
2022/04/09 01:09:01;;;;;;;6.88;0.80;;;13.30;81.40;;;;;;5063486;28;20037;-60
2022/04/09 01:11:26;;;;;;;4.30;0.70;;;13.30;81.50;;;;;;5059523;28;20024;-61
2022/04/09 01:13:52;;;;;;;3.47;0.90;;;13.20;81.60;;;;;;5075630;28;20070;-60
2022/04/09 01:16:17;;;;;;;2.60;0.73;;;13.20;81.70;;;;;;5057914;28;20060;-60
2022/04/09 01:18:43;;;;;;;2.25;0.70;;;13.10;81.80;;;;;;5058639;28;20036;-61
2022/04/09 01:21:09;;;;;;;1.48;0.63;;;13.10;81.80;;;;;;5074773;28;20532;-60
2022/04/09 01:23:34;;;;;;;1.08;0.60;;;13.00;82.00;;;;;;5059967;28;20027;-59
2022/04/09 01:26:01;;;;;;;1.38;0.60;;;13.10;82.20;;;;;;5058718;28;20081;-60
2022/04/09 01:28:26;;;;;;;7.32;1.00;;;13.10;82.20;;;;;;5075601;28;20142;-60
2022/04/09 01:30:52;;;;;;;1.67;0.60;;;13.10;82.40;;;;;;5078762;28;20102;-62
2022/04/09 01:33:18;;;;;;;2.38;0.68;;;13.10;82.40;;;;;;5058682;28;20028;-60
2022/04/09 01:35:44;;;;;;;2.33;0.50;;;13.10;82.50;;;;;;5061090;28;20024;-60
2022/04/09 01:38:09;;;;;;;0.65;0.50;;;13.10;82.50;;;;;;5058116;28;20047;-60
2022/04/09 01:40:35;;;;;;;2.08;0.60;;;13.10;82.60;;;;;;5060743;28;20052;-60
2022/04/09 01:43:00;;;;;;;4.32;0.90;;;13.10;82.70;;;;;;5060536;28;20029;-60
2022/04/09 01:45:27;;;;;;;0.82;0.45;;;13.10;82.80;;;;;;5077032;28;20060;-61
2022/04/09 01:47:53;;;;;;;2.58;0.70;;;13.10;82.90;;;;;;5058980;28;20726;-60
2022/04/09 01:50:19;;;;;;;3.28;0.57;;;13.00;83.20;;;;;;5056936;28;20032;-61
2022/04/09 01:52:44;;;;;;;0.98;0.60;;;13.00;83.00;;;;;;5077991;28;20028;-61
2022/04/09 01:55:10;;;;;;;1.42;0.70;;;12.80;82.90;;;;;;5063577;28;20033;-60
2022/04/09 01:57:36;;;;;;;1.25;0.80;;;12.90;83.10;;;;;;5061859;28;20369;-61
2022/04/09 02:00:02;;;;;;;2.03;0.77;;;12.90;83.10;;;;;;5060556;28;20029;-60
2022/04/09 02:02:27;;;;;;;0.70;0.50;;;12.80;83.40;;;;;;5059970;28;20032;-60
2022/04/09 02:04:53;;;;;;;1.35;0.55;;;12.80;82.50;;;;;;5061896;28;20040;-60
2022/04/09 02:07:19;;;;;;;0.90;0.57;;;12.70;82.20;;;;;;5076297;28;20134;-60
2022/04/09 02:09:45;;;;;;;0.90;0.60;;;12.70;82.10;;;;;;5077018;28;20021;-61
2022/04/09 02:12:10;;;;;;;1.48;0.60;;;12.70;82.10;;;;;;5073790;28;20033;-60
2022/04/09 02:14:36;;;;;;;1.95;0.77;;;12.60;81.80;;;;;;5059516;28;20045;-61
2022/04/09 02:17:01;;;;;;;2.17;0.50;;;12.50;81.60;;;;;;5060554;28;20119;-60
2022/04/09 02:19:27;;;;;;;0.32;0.32;;;12.50;81.40;;;;;;5060611;28;20033;-60
2022/04/09 02:21:52;;;;;;;2.08;0.40;;;12.50;81.20;;;;;;5061509;28;20529;-60
2022/04/09 02:24:18;;;;;;;0.80;0.43;;;12.50;81.30;;;;;;5059616;28;20097;-60
2022/04/09 02:26:43;;;;;;;2.05;0.75;;;12.40;81.00;;;;;;5074518;28;20067;-60
2022/04/09 02:29:10;;;;;;;0.47;0.40;;;12.30;81.00;;;;;;5059808;28;20421;-60
2022/04/09 02:31:36;;;;;;;0.73;0.40;;;12.30;80.90;;;;;;5062358;28;20053;-61
2022/04/09 02:34:02;;;;;;;1.20;0.60;;;12.30;80.80;;;;;;5057885;28;20073;-59
2022/04/09 02:36:29;;;;;;;0.35;0.30;;;12.30;80.70;;;;;;5059643;28;20111;-60
2022/04/09 02:38:54;;;;;;;1.05;0.40;;;12.20;80.80;;;;;;5061068;28;20090;-59
2022/04/09 02:41:20;;;;;;;1.98;0.73;;;12.20;80.50;;;;;;5059722;28;20041;-60
2022/04/09 02:43:46;;;;;;;1.50;0.80;;;12.10;80.70;;;;;;5075516;28;20036;-59
2022/04/09 02:46:12;;;;;;;0.82;0.60;;;12.10;80.70;;;;;;5059292;28;20134;-60
2022/04/09 02:48:37;;;;;;;3.72;0.63;;;12.10;80.60;;;;;;5058481;28;20120;-60
2022/04/09 02:51:03;;;;;;;1.40;0.90;;;12.10;80.40;;;;;;5056448;28;20118;-61
2022/04/09 02:53:28;;;;;;;0.60;0.50;;;12.10;80.20;;;;;;5059504;28;20028;-60
2022/04/09 02:55:54;;;;;;;2.13;0.75;;;12.10;80.00;;;;;;5058872;28;20036;-60
2022/04/09 02:58:19;;;;;;;2.47;0.90;;;12.00;79.70;;;;;;5058997;28;20112;-60
2022/04/09 03:00:45;;;;;;;1.00;0.75;;;12.00;79.80;;;;;;5040787;28;20032;-61
2022/04/09 03:03:10;;;;;;;1.50;0.70;;;11.90;79.70;;;;;;5061391;28;20036;-60
2022/04/09 03:05:36;;;;;;;0.50;0.50;;;11.90;79.80;;;;;;5028085;28;20571;-60
2022/04/09 03:08:01;;;;;;;1.10;1.00;;;11.90;79.60;;;;;;5059562;28;20051;-60
2022/04/09 03:10:27;;;;;;;0.40;0.40;;;11.80;79.60;;;;;;5042957;28;20035;-61
2022/04/09 03:12:52;;;;;;;0.70;0.52;;;11.80;79.70;;;;;;5057411;28;20344;-60
2022/04/09 03:15:18;;;;;;;0.80;0.63;;;11.80;79.50;;;;;;5040612;28;20040;-60
2022/04/09 03:17:44;;;;;;;0.70;0.60;;;11.70;79.50;;;;;;5057678;28;20040;-60
2022/04/09 03:20:10;;;;;;;0.50;0.50;;;11.70;79.40;;;;;;5063057;28;20581;-60
2022/04/09 03:22:35;;;;;;;0.30;0.30;;;11.70;79.40;;;;;;5061047;28;20098;-60
2022/04/09 03:25:02;;;;;;;0.38;0.25;;;11.60;79.30;;;;;;5064319;28;20070;-61
2022/04/09 03:27:28;;;;;;;0.45;0.40;;;11.60;79.20;;;;;;5062812;28;20662;-60
2022/04/09 03:29:53;;;;;;;0.43;0.30;;;11.50;79.00;;;;;;5063331;28;20032;-60
2022/04/09 03:32:19;;;;;;;1.05;0.47;;;11.50;79.10;;;;;;5043989;28;20083;-60
2022/04/09 03:34:45;;;;;;;0.20;0.20;;;11.50;79.10;;;;;;5061284;28;20397;-60
2022/04/09 03:37:10;;;;;;;0.98;0.50;;;11.40;78.90;;;;;;5046142;28;20448;-61
2022/04/09 03:39:36;;;;;;;0.20;0.20;;;11.40;79.10;;;;;;5046461;28;20025;-60
2022/04/09 03:42:03;;;;;;;0.30;0.30;;;11.40;79.10;;;;;;5028505;28;20036;-61
2022/04/09 03:44:28;;;;;;;0.20;0.10;;;11.30;78.80;;;;;;5064028;28;20040;-59
2022/04/09 03:47:00;;;;;;;0.60;0.43;;;11.30;78.90;;;;;;5062562;28;20059;-59
2022/04/09 03:49:26;;;;;;;0.30;0.30;;;11.20;78.80;;;;;;5043199;28;20036;-59
2022/04/09 03:51:52;;;;;;;0.40;0.30;;;11.30;78.70;;;;;;5062807;28;20032;-60
2022/04/09 03:54:17;;;;;;;0.30;0.30;;;11.30;78.80;;;;;;5060382;28;20032;-60
2022/04/09 03:56:43;;;;;;;1.35;0.35;;;11.20;78.90;;;;;;5062346;28;20028;-59
2022/04/09 03:59:09;;;;;;;1.70;0.30;;;11.20;79.00;;;;;;5063144;28;20151;-60
2022/04/09 04:01:35;;;;;;;0.95;0.40;;;11.10;78.80;;;;;;5061128;28;20044;-60
2022/04/09 04:04:01;;;;;;;0.30;0.30;;;11.10;78.70;;;;;;5060620;28;20052;-61
2022/04/09 04:06:27;;;;;;;0.75;0.30;;;11.10;78.70;;;;;;5060267;28;20032;-59
2022/04/09 04:08:52;;;;;;;0.45;0.30;;;11.10;78.60;;;;;;5060801;28;20035;-60
2022/04/09 04:11:18;;;;;;;0.80;0.35;;;11.10;78.50;;;;;;5060318;28;20040;-61
2022/04/09 04:13:43;;;;;;;0.30;0.20;;;11.00;78.60;;;;;;5062471;28;20577;-59
2022/04/09 04:16:09;;;;;;;0.57;0.50;;;11.00;78.60;;;;;;5063360;28;20697;-60
2022/04/09 04:18:36;;;;;;;2.47;0.65;;;11.00;78.60;;;;;;5061519;28;20646;-60
2022/04/09 04:21:02;;;;;;;0.98;0.88;;;10.90;78.50;;;;;;5044756;28;20105;-60
2022/04/09 04:23:27;;;;;;;5.88;1.45;;;10.90;78.40;;;;;;5062794;28;20071;-61
2022/04/09 04:25:53;;;;;;;1.92;1.20;;;10.90;78.40;;;;;;5061417;28;20052;-61
2022/04/09 04:28:18;;;;;;;2.83;1.25;;;10.80;78.50;;;;;;5063728;28;20056;-60
2022/04/09 04:30:44;;;;;;;1.23;1.00;;;10.80;78.40;;;;;;5025954;28;20735;-61
2022/04/09 04:33:09;;;;;;;2.42;0.95;;;10.80;78.40;;;;;;5059741;28;20040;-60
2022/04/09 04:35:35;;;;;;;3.75;1.05;;;10.80;78.50;;;;;;5062168;28;20036;-61
2022/04/09 04:38:00;;;;;;;6.07;1.20;;;10.80;78.50;;;;;;5063209;28;20060;-59
2022/04/09 04:40:26;;;;;;;1.85;1.00;;;10.70;78.60;;;;;;5062740;28;20108;-59
2022/04/09 04:42:51;;;;;;;1.20;1.08;;;10.70;78.50;;;;;;5044767;28;20085;-60
2022/04/09 04:45:17;;;;;;;2.25;0.90;;;10.70;78.50;;;;;;5061790;28;20487;-60
2022/04/09 04:47:47;;;;;;;1.40;0.90;;;10.70;78.50;;;;;;5061323;28;20569;-59
2022/04/09 04:50:12;;;;;;;0.82;0.70;;;10.70;78.60;;;;;;5059017;28;20120;-59
2022/04/09 04:52:38;;;;;;;2.25;1.08;;;10.70;78.60;;;;;;5060105;28;20040;-60
2022/04/09 04:55:04;;;;;;;2.28;1.00;;;10.60;78.60;;;;;;5058775;28;20103;-61
2022/04/09 04:57:38;;;;;;;4.63;0.75;;;10.60;78.60;;;;;;5063173;28;20433;-59
2022/04/09 05:00:05;;;;;;;3.95;0.88;;;10.60;78.60;;;;;;5061156;28;20036;-60
2022/04/09 05:02:30;;;;;;;3.53;0.70;;;10.60;78.60;;;;;;5059435;28;20020;-60
2022/04/09 05:04:56;;;;;;;1.13;0.77;;;10.60;78.60;;;;;;5060261;28;20663;-60
2022/04/09 05:07:23;;;;;;;2.00;1.25;;;10.50;78.60;;;;;;5057026;28;20048;-60
2022/04/09 05:09:48;;;;;;;1.83;1.42;;;10.50;78.60;;;;;;5060393;28;20101;-60
2022/04/09 05:12:14;;;;;;;2.28;1.63;;;10.50;78.70;;;;;;5059945;28;20044;-60
2022/04/09 05:14:39;;;;;;;3.22;1.27;;;10.50;79.20;;;;;;5061051;28;20074;-59
2022/04/09 05:17:05;;;;;;;2.15;1.60;;;10.50;78.60;;;;;;5061443;28;20033;-60
2022/04/09 05:19:30;;;;;;;3.53;1.10;;;10.50;78.70;;;;;;5060871;28;20029;-61
2022/04/09 05:21:56;;;;;;;3.58;1.35;;;10.50;78.60;;;;;;5062297;28;20062;-59
2022/04/09 05:24:21;;;;;;;1.25;1.10;;;10.40;78.60;;;;;;5059923;28;20113;-60
2022/04/09 05:26:47;;;;;;;1.10;1.00;;;10.40;78.70;;;;;;5059562;28;20062;-60
2022/04/09 05:29:12;;;;;;;1.67;1.40;;;10.40;78.70;;;;;;5044711;28;20028;-60
2022/04/09 05:31:38;;;;;;;1.80;1.38;;;10.40;78.80;;;;;;5060124;28;20045;-60
2022/04/09 05:34:03;;;;;;;1.63;1.45;;;10.30;78.60;;;;;;5043329;28;20078;-60
2022/04/09 05:36:29;;;;;;;5.13;1.60;;;10.30;78.60;;;;;;5058407;28;20028;-59
2022/04/09 05:38:55;;;;;;;2.08;1.55;;;10.30;78.70;;;;;;5061122;28;20035;-60
2022/04/09 05:41:20;;;;;;;2.38;1.58;;;10.30;78.80;;;;;;5039855;28;20029;-61
2022/04/09 05:43:46;;;;;;;27.80;3.50;;;10.30;78.70;;;;;;5060507;28;20028;-60
2022/04/09 05:46:11;;;;;;;21.48;2.67;;;10.30;78.60;;;;;;5042472;28;20028;-60
2022/04/09 05:48:37;;;;;;;10.75;1.92;;;10.30;78.60;;;;;;5058735;28;20043;-60
2022/04/09 05:51:02;;;;;;;44.55;4.68;;;10.30;78.60;;;;;;5042253;28;20206;-60
2022/04/09 05:53:28;;;;;;;232.05;17.65;;;10.30;79.40;;;;;;5059654;28;20132;-60
2022/04/09 05:55:54;;;;;;;196.57;15.85;;;10.30;78.80;;;;;;5059409;28;20028;-59
2022/04/09 05:58:19;;;;;;;218.55;18.45;;;10.30;78.80;;;;;;5061006;28;20061;-59
2022/04/09 06:00:45;;;;;;;164.57;15.30;;;10.20;78.80;;;;;;5061238;28;20391;-60
2022/04/09 06:03:11;;;;;;;160.98;12.25;;;10.10;78.80;;;;;;5060305;28;20113;-60
2022/04/09 06:05:36;;;;;;;146.90;12.07;;;10.20;78.90;;;;;;5061222;28;20028;-60
2022/04/09 06:08:02;;;;;;;133.40;12.02;;;10.20;79.00;;;;;;5045441;28;20036;-59
2022/04/09 06:10:27;;;;;;;125.65;10.95;;;10.10;79.00;;;;;;5063026;28;20178;-60
2022/04/09 06:12:53;;;;;;;113.75;10.70;;;10.10;79.00;;;;;;5058549;28;20621;-60
2022/04/09 06:15:19;;;;;;;123.40;11.45;;;10.10;79.10;;;;;;5059829;28;20535;-59
2022/04/09 06:17:44;;;;;;;112.43;9.38;;;10.10;79.10;;;;;;5059667;28;20032;-61
2022/04/09 06:20:10;;;;;;;102.45;9.40;;;10.10;79.20;;;;;;5059762;28;20144;-59
2022/04/09 06:22:35;;;;;;;86.25;9.05;;;10.10;79.20;;;;;;5056792;28;20024;-59
2022/04/09 06:25:01;;;;;;;61.97;7.63;;;10.10;79.20;;;;;;5059866;28;20097;-60
2022/04/09 06:27:26;;;;;;;80.68;7.40;;;10.10;79.10;;;;;;5061208;28;20104;-60
2022/04/09 06:29:52;;;;;;;71.82;8.43;;;10.10;79.10;;;;;;5032573;28;20415;-60
2022/04/09 06:32:17;;;;;;;69.05;7.40;;;10.10;79.20;;;;;;5062220;28;20048;-60
2022/04/09 06:34:43;;;;;;;43.63;6.82;;;10.10;79.20;;;;;;5061171;28;20032;-61
2022/04/09 06:37:08;;;;;;;62.47;7.15;;;10.10;79.20;;;;;;5058133;28;20036;-60
2022/04/09 06:39:34;;;;;;;64.32;6.57;;;10.20;79.40;;;;;;5056388;28;20047;-61
2022/04/09 06:42:00;;;;;;;42.75;5.28;;;10.10;79.30;;;;;;5060301;28;20063;-60
2022/04/09 06:44:25;;;;;;;48.45;5.53;;;10.00;79.20;;;;;;5056997;28;20044;-60
2022/04/09 06:46:51;;;;;;;46.03;5.75;;;10.00;79.30;;;;;;5059355;28;20032;-60
2022/04/09 06:49:17;;;;;;;43.13;5.03;;;10.00;79.30;;;;;;5040951;28;20033;-60
2022/04/09 06:51:42;;;;;;;48.45;5.40;;;10.00;79.20;;;;;;5060183;28;20029;-60
2022/04/09 06:54:09;;;;;;;55.03;5.05;;;10.00;79.30;;;;;;5061467;28;20059;-60
2022/04/09 06:56:36;;;;;;;48.03;4.88;;;10.00;79.30;;;;;;5064351;28;20401;-59
2022/04/09 06:59:03;;;;;;;45.90;4.80;;;10.00;79.30;;;;;;5063286;28;20017;-60
2022/04/09 07:01:30;;;;;;;47.22;5.68;;;10.00;79.40;;;;;;5047821;28;20032;-60
2022/04/09 07:03:55;;;;;;;39.13;5.75;;;10.00;79.50;;;;;;5061997;28;20033;-60
2022/04/09 07:06:21;;;;;;;35.72;5.68;;;9.90;79.40;;;;;;5060738;28;20082;-60
2022/04/09 07:08:47;;;;;;;51.10;6.88;;;10.00;79.40;;;;;;5065341;28;20040;-60
2022/04/09 07:11:13;;;;;;;30.73;5.10;;;10.00;79.50;;;;;;5061262;28;20483;-60
2022/04/09 07:13:38;;;;;;;30.17;4.88;;;9.90;79.40;;;;;;5064148;28;20033;-60
2022/04/09 07:16:04;;;;;;;21.08;4.50;;;10.00;79.50;;;;;;5063576;28;20043;-59
2022/04/09 07:18:30;;;;;;;21.80;4.65;;;10.00;79.50;;;;;;5063611;28;20631;-60
2022/04/09 07:20:55;;;;;;;26.40;4.90;;;10.00;79.60;;;;;;5063241;28;20147;-60
2022/04/09 07:23:21;;;;;;;34.78;5.10;;;10.00;79.80;;;;;;5062270;28;20036;-59
2022/04/09 07:25:47;;;;;;;31.98;4.50;;;10.00;79.90;;;;;;5062368;28;20175;-61
2022/04/09 07:28:13;;;;;;;25.77;3.80;;;10.00;79.90;;;;;;5060564;28;20028;-60
2022/04/09 07:30:38;;;;;;;36.25;5.35;;;10.00;79.90;;;;;;5061207;28;20143;-61
2022/04/09 07:33:04;;;;;;;30.65;4.55;;;10.00;79.90;;;;;;5059781;28;20452;-59
2022/04/09 07:35:30;;;;;;;27.77;4.55;;;10.00;80.00;;;;;;5045465;28;20506;-60
2022/04/09 07:37:58;;;;;;;30.02;3.95;;;10.00;79.90;;;;;;5063592;28;20024;-60
2022/04/09 07:40:24;;;;;;;26.98;4.18;;;10.00;80.00;;;;;;5064577;28;20090;-60
2022/04/09 07:42:50;;;;;;;26.80;4.30;;;9.90;80.00;;;;;;5047652;28;21392;-59
2022/04/09 07:45:16;;;;;;;19.55;4.22;;;9.90;80.10;;;;;;5045504;28;20024;-60
2022/04/09 07:47:42;;;;;;;17.40;3.42;;;9.90;80.10;;;;;;5060428;28;20407;-60
2022/04/09 07:50:10;;;;;;;16.08;3.38;;;9.90;80.10;;;;;;5058738;28;20144;-60
2022/04/09 07:52:44;;;;;;;17.08;3.25;;;9.90;80.10;;;;;;5043493;28;20437;-60
2022/04/09 07:55:11;;;;;;;10.27;3.08;;;9.90;80.20;;;;;;5060213;28;20046;-59
2022/04/09 07:57:40;;;;;;;17.42;3.17;;;10.10;80.30;;;;;;5043400;28;20544;-60
2022/04/09 08:00:06;;;;;;;14.57;3.20;;;9.90;80.30;;;;;;5053725;28;20460;-60
2022/04/09 08:02:33;;;;;;;13.57;3.45;;;9.90;80.10;;;;;;5051810;28;20036;-60
2022/04/09 08:04:58;;;;;;;21.52;2.97;;;9.90;80.10;;;;;;5061075;28;20128;-61
2022/04/09 08:07:24;;;;;;;9.82;2.80;;;9.90;80.20;;;;;;5059033;28;20107;-60
2022/04/09 08:09:49;;;;;;;11.77;3.08;;;9.90;80.30;;;;;;5054292;28;20032;-61
2022/04/09 08:12:15;;;;;;;20.27;4.18;;;9.90;80.40;;;;;;5055632;28;20163;-60
2022/04/09 08:14:44;;;;;;;15.30;3.47;;;9.90;80.50;;;;;;5055681;28;20106;-61
2022/04/09 08:17:10;;;;;;;21.23;3.60;;;9.90;80.60;;;;;;5059809;28;20025;-60
2022/04/09 08:19:35;;;;;;;23.65;3.83;;;9.90;80.90;;;;;;5044477;28;20443;-60
2022/04/09 08:22:02;;;;;;;15.95;2.75;;;9.90;80.90;;;;;;5055965;28;20659;-59
2022/04/09 08:24:28;;;;;;;14.13;3.20;;;9.90;80.70;;;;;;5061267;28;20716;-60
2022/04/09 08:26:53;;;;;;;13.20;3.55;;;10.00;80.80;;;;;;5062478;28;20215;-59
2022/04/09 08:29:20;;;;;;;17.02;3.88;;;10.00;80.80;;;;;;5056968;28;20036;-60
2022/04/09 08:31:47;;;;;;;14.88;3.65;;;10.00;80.90;;;;;;5061062;28;20139;-60
2022/04/09 08:34:19;;;;;;;21.90;3.20;;;10.10;80.90;;;;;;5058433;28;20027;-59
2022/04/09 08:36:44;;;;;;;46.58;6.68;;;10.10;80.70;;;;;;5061573;28;20033;-60
2022/04/09 08:39:10;;;;;;;38.25;5.25;;;10.10;80.90;;;;;;5043480;28;20043;-60
2022/04/09 08:41:37;;;;;;;82.78;9.45;;;10.20;81.00;;;;;;5062229;28;20440;-59
2022/04/09 08:44:03;;;;;;;42.65;7.10;;;10.20;81.10;;;;;;5044401;28;20116;-60
2022/04/09 08:46:28;;;;;;;76.25;8.27;;;10.30;81.60;;;;;;5056087;28;21214;-60
2022/04/09 08:48:54;;;;;;;157.10;14.18;;;10.30;81.80;;;;;;5042946;28;20024;-60
2022/04/09 08:51:19;;;;;;;160.63;15.85;;;10.30;82.00;;;;;;5039604;28;20442;-60
2022/04/09 08:53:45;;;;;;;106.57;12.60;;;10.40;82.30;;;;;;5062189;28;20203;-59
2022/04/09 08:56:11;;;;;;;91.68;10.38;;;10.40;82.00;;;;;;5054738;28;20062;-60
2022/04/09 08:58:36;;;;;;;79.47;9.23;;;10.40;82.10;;;;;;5058917;28;20209;-60
2022/04/09 09:01:02;;;;;;;81.80;9.88;;;10.40;81.60;;;;;;5060604;28;20087;-60
2022/04/09 09:03:27;;;;;;;82.63;10.23;;;10.50;81.40;;;;;;5043572;28;20548;-61
2022/04/09 09:05:53;;;;;;;93.55;11.85;;;10.50;81.50;;;;;;5055136;28;21013;-60
2022/04/09 09:08:35;;;;;;;94.28;11.77;;;10.50;81.70;;;;;;5023778;28;20028;-60
2022/04/09 09:11:01;;;;;;;92.10;10.82;;;10.60;81.80;;;;;;5041608;28;20583;-60
2022/04/09 09:13:26;;;;;;;79.85;11.05;;;10.60;81.80;;;;;;5059437;28;20037;-61
2022/04/09 09:15:53;;;;;;;177.30;22.02;;;10.60;81.20;;;;;;5059346;28;20039;-60
2022/04/09 09:18:18;;;;;;;111.03;12.93;;;10.70;81.50;;;;;;5044068;28;20089;-60
2022/04/09 09:21:00;;;;;;;99.97;13.32;;;10.70;81.60;;;;;;5060107;28;20523;-60
2022/04/09 09:23:29;;;;;;;116.63;11.00;;;10.70;81.50;;;;;;5024751;28;20392;-60
2022/04/09 09:25:56;;;;;;;110.15;13.18;;;10.80;81.30;;;;;;5057303;28;20028;-60
2022/04/09 09:28:26;;;;;;;111.05;14.45;;;10.80;81.40;;;;;;5057367;28;20033;-60
2022/04/09 09:30:51;;;;;;;108.40;13.98;;;10.80;81.30;;;;;;5042874;28;20039;-61
2022/04/09 09:33:17;;;;;;;163.77;14.88;;;10.90;81.60;;;;;;5026934;28;20028;-60
2022/04/09 09:35:56;;;;;;;150.02;15.43;;;10.90;81.60;;;;;;5043528;28;20476;-60
2022/04/09 09:38:23;;;;;;;123.28;14.68;;;10.90;81.80;;;;;;5041800;28;20048;-60
2022/04/09 09:40:49;;;;;;;108.60;14.32;;;10.90;81.60;;;;;;5059452;28;20032;-59
2022/04/09 09:43:15;;;;;;;130.23;15.38;;;11.00;81.30;;;;;;5056028;28;20025;-60
2022/04/09 09:45:41;;;;;;;99.20;12.73;;;11.00;81.30;;;;;;5040427;28;20032;-60
2022/04/09 09:48:18;;;;;;;135.02;14.95;;;11.00;81.40;;;;;;5058978;28;20040;-60
2022/04/09 09:50:45;;;;;;;147.27;14.57;;;11.00;81.30;;;;;;5060621;28;20028;-59
2022/04/09 09:53:10;;;;;;;126.78;16.13;;;11.00;81.10;;;;;;5057299;28;20105;-60
2022/04/09 09:55:43;;;;;;;127.72;14.88;;;11.10;81.40;;;;;;5037627;28;20025;-59
2022/04/09 09:58:17;;;;;;;124.28;15.48;;;11.10;81.20;;;;;;5060096;28;20029;-61
2022/04/09 10:00:43;;;;;;;120.38;16.50;;;11.10;81.30;;;;;;5060195;28;20237;-59
2022/04/09 10:03:10;;;;;;;158.35;15.77;;;11.10;81.30;;;;;;5057716;28;20056;-60
2022/04/09 10:05:37;;;;;;;136.35;17.00;;;11.10;81.30;;;;;;5020772;28;20109;-60
2022/04/09 10:08:05;;;;;;;135.70;17.73;;;11.10;81.20;;;;;;5054500;28;20057;-60
2022/04/09 10:10:35;;;;;;;135.05;17.23;;;11.10;81.10;;;;;;5021753;28;20186;-60
2022/04/09 10:13:02;;;;;;;141.80;17.17;;;11.10;81.60;;;;;;5037177;28;20639;-59
2022/04/09 10:15:27;;;;;;;130.27;15.82;;;11.20;81.10;;;;;;5036440;28;20029;-59
2022/04/09 10:17:55;;;;;;;131.82;16.23;;;11.20;80.80;;;;;;5017277;28;20032;-59
2022/04/09 10:20:23;;;;;;;110.80;16.27;;;11.30;80.60;;;;;;5022528;28;20883;-60
2022/04/09 10:22:49;;;;;;;116.32;16.67;;;11.30;80.30;;;;;;5021680;28;20158;-61
2022/04/09 10:25:15;;;;;;;157.07;17.60;;;11.30;80.40;;;;;;5055290;28;20112;-59
2022/04/09 10:27:44;;;;;;;197.20;22.25;;;11.30;80.30;;;;;;5037402;28;20618;-59
2022/04/09 10:30:22;;;;;;;189.10;20.77;;;11.30;80.40;;;;;;5037777;28;20421;-60
2022/04/09 10:32:51;;;;;;;159.63;19.08;;;11.30;80.30;;;;;;5054011;28;20055;-60
2022/04/09 10:35:26;;;;;;;162.88;17.98;;;11.30;80.00;;;;;;5037412;28;20043;-59
2022/04/09 10:38:07;;;;;;;;;;;11.40;80.00;;;;;;5053498;28;20107;-60
2022/04/09 10:40:33;;;;;;;146.40;16.38;;;11.40;79.80;;;;;;5055383;28;20015;-60
2022/04/09 10:43:01;;;;;;;141.55;18.85;;;11.40;79.50;;;;;;5040221;28;20128;-60
2022/04/09 10:45:28;;;;;;;161.93;20.95;;;11.50;79.40;;;;;;5042904;28;20310;-60
2022/04/09 10:48:14;;;;;;;169.45;20.25;;;11.50;79.20;;;;;;5043456;28;20025;-60
2022/04/09 10:50:59;;;;;;;171.18;21.30;;;11.50;79.00;;;;;;5071908;28;20021;-60
2022/04/09 10:53:26;;;;;;;188.93;23.15;;;11.60;78.90;;;;;;5058247;28;20051;-59
2022/04/09 10:56:36;;;;;;;178.65;19.98;;;11.60;78.70;;;;;;5054748;28;20055;-59
2022/04/09 10:59:16;;;;;;;177.90;20.67;;;11.60;78.40;;;;;;5001107;28;20101;-60
2022/04/09 11:01:51;;;;;;;217.15;23.42;;;11.70;78.30;;;;;;5014051;28;20124;-60
2022/04/09 11:04:32;;;;;;;192.30;21.67;;;11.70;78.10;;;;;;5044762;28;20048;-60
2022/04/09 11:07:23;;;;;;;165.50;19.73;;;11.70;77.90;;;;;;5056644;28;20032;-60
2022/04/09 11:10:03;;;;;;;159.65;19.45;;;11.80;77.60;;;;;;5056037;28;20141;-59
2022/04/09 11:12:37;;;;;;;145.60;19.98;;;11.70;76.90;;;;;;5057189;28;20025;-61
2022/04/09 11:15:04;;;;;;;157.20;19.58;;;11.70;76.70;;;;;;5059353;28;20033;-60
2022/04/09 11:17:33;;;;;;;193.07;20.45;;;11.80;77.00;;;;;;5024095;28;20048;-60
2022/04/09 11:20:16;;;;;;;181.48;22.45;;;11.80;77.20;;;;;;5055706;28;20048;-60
2022/04/09 11:22:47;;;;;;;229.20;25.92;;;11.90;77.30;;;;;;5024425;28;20171;-60
2022/04/09 11:25:29;;;;;;;266.83;28.98;;;12.00;77.20;;;;;;5038927;28;20107;-59
2022/04/09 11:28:08;;;;;;;228.63;24.40;;;12.00;76.90;;;;;;5039708;28;20081;-60
2022/04/09 11:30:33;;;;;;;201.93;22.83;;;12.00;76.80;;;;;;5040008;28;20361;-59
2022/04/09 11:32:59;;;;;;;223.02;23.08;;;12.10;76.90;;;;;;5054621;28;20052;-59
2022/04/09 11:35:25;;;;;;;225.65;24.92;;;12.10;77.00;;;;;;5041671;28;20045;-60
2022/04/09 11:37:51;;;;;;;186.68;23.65;;;12.20;76.80;;;;;;5059753;28;20229;-60
2022/04/09 11:40:18;;;;;;;255.88;28.13;;;12.30;76.40;;;;;;5040025;28;20139;-59
2022/04/09 11:42:53;;;;;;;170.98;22.60;;;12.40;76.10;;;;;;5058375;28;20092;-60
2022/04/09 11:45:27;;;;;;;212.93;22.50;;;12.40;75.70;;;;;;5061569;28;20033;-60
2022/04/09 11:47:54;;;;;;;219.80;25.33;;;12.50;75.50;;;;;;5061826;28;20049;-60
2022/04/09 11:50:19;;;;;;;202.43;22.45;;;12.50;75.30;;;;;;5061112;28;20023;-59
2022/04/09 11:52:45;;;;;;;194.45;22.80;;;12.50;75.30;;;;;;5061962;28;20032;-60
2022/04/09 11:55:14;;;;;;;195.85;23.02;;;12.50;75.30;;;;;;5058389;28;20020;-60
2022/04/09 11:57:51;;;;;;;205.02;24.65;;;12.50;75.20;;;;;;5059802;28;20028;-59
2022/04/09 12:00:16;;;;;;;238.07;28.80;;;12.50;75.10;;;;;;5061211;28;20025;-60
2022/04/09 12:02:42;;;;;;;208.43;23.63;;;12.60;75.10;;;;;;5058034;28;20036;-59
2022/04/09 12:05:11;;;;;;;203.73;23.98;;;12.60;74.80;;;;;;5057915;28;20036;-60
2022/04/09 12:07:41;;;;;;;174.23;24.52;;;12.70;74.20;;;;;;5057647;28;20017;-60
2022/04/09 12:10:08;;;;;;;201.70;22.75;;;12.70;73.90;;;;;;5059210;28;20025;-60
2022/04/09 12:12:38;;;;;;;174.85;20.63;;;12.80;73.70;;;;;;5059375;28;20047;-59
2022/04/09 12:15:04;;;;;;;181.23;18.88;;;12.90;73.40;;;;;;5056587;28;20072;-60
2022/04/09 12:17:34;;;;;;;155.77;18.58;;;12.90;72.90;;;;;;5058818;28;20067;-60
2022/04/09 12:19:59;;;;;;;160.07;19.35;;;13.00;72.80;;;;;;5043205;28;20055;-61
2022/04/09 12:22:25;;;;;;;167.35;17.98;;;13.00;72.50;;;;;;5057558;28;20028;-60
2022/04/09 12:24:57;;;;;;;145.60;19.73;;;13.10;72.50;;;;;;5040994;28;20077;-60
2022/04/09 12:27:44;;;;;;;182.25;19.48;;;13.10;72.20;;;;;;5059043;28;20072;-60
2022/04/09 12:30:11;;;;;;;166.02;18.48;;;13.20;72.00;;;;;;5061239;28;20380;-59
2022/04/09 12:32:36;;;;;;;168.68;20.35;;;13.30;72.00;;;;;;5042979;28;20093;-60
2022/04/09 12:35:07;;;;;;;157.85;19.42;;;13.30;71.80;;;;;;5042458;28;20028;-60